Time;durP1;ratioP1;P1;durP2;ratioP2;P2;SDS_P1;SDS_P2;PMS_P1;PMS_P2;Temp;Humidity;BMP_temperature;BMP_pressure;BME280_temperature;BME280_humidity;BME280_pressure;Samples;Min_cycle;Max_cycle;Signal;HPM_P1;HPM_P2
2022/06/06 00:01:08;;;;;;;;;;;15.30;99.90;;;;;;5031393;28;19905;-54
2022/06/06 00:03:33;;;;;;;;;;;15.40;99.90;;;;;;5030751;28;19917;-54
2022/06/06 00:05:59;;;;;;;;;;;15.40;99.90;;;;;;5031137;28;19909;-55
2022/06/06 00:08:24;;;;;;;;;;;15.40;99.90;;;;;;5031027;28;20274;-54
2022/06/06 00:10:54;;;;;;;;;;;15.30;99.90;;;;;;5031231;28;19960;-54
2022/06/06 00:13:20;;;;;;;;;;;15.30;99.90;;;;;;5030814;28;20290;-55
2022/06/06 00:15:46;;;;;;;;;;;15.30;99.90;;;;;;5030963;28;19905;-55
2022/06/06 00:18:12;;;;;;;;;;;15.30;99.90;;;;;;5030907;28;19913;-55
2022/06/06 00:20:37;;;;;;;;;;;15.20;99.90;;;;;;5029919;28;20282;-54
2022/06/06 00:23:03;;;;;;;;;;;15.20;99.90;;;;;;5031093;28;19915;-55
2022/06/06 00:25:29;;;;;;;;;;;15.20;99.90;;;;;;5033907;28;20284;-55
2022/06/06 00:27:54;;;;;;;;;;;15.20;99.90;;;;;;5034447;28;20351;-55
2022/06/06 00:30:20;;;;;;;;;;;15.20;99.90;;;;;;5034735;28;19905;-55
2022/06/06 00:35:30;;;;;;;;;;;15.10;99.90;;;;;;5034734;28;19931;-55
2022/06/06 00:37:56;;;;;;;;;;;15.20;99.90;;;;;;5034173;28;19921;-57
2022/06/06 00:40:22;;;;;;;;;;;15.10;99.90;;;;;;5033399;28;19905;-55
2022/06/06 00:42:48;;;;;;;;;;;15.10;99.90;;;;;;5034084;28;19908;-55
2022/06/06 00:45:19;;;;;;;;;;;15.10;99.90;;;;;;5034251;28;19939;-56
2022/06/06 00:47:47;;;;;;;;;;;15.10;99.90;;;;;;5034066;28;19987;-54
2022/06/06 00:50:14;;;;;;;;;;;15.10;99.90;;;;;;5032788;28;19905;-54
2022/06/06 00:52:41;;;;;;;;;;;15.00;99.90;;;;;;5034393;28;19931;-53
2022/06/06 00:55:11;;;;;;;;;;;15.00;99.90;;;;;;5033896;28;20357;-54
2022/06/06 00:57:40;;;;;;;;;;;15.00;99.90;;;;;;5033807;28;19905;-53
2022/06/06 01:00:08;;;;;;;;;;;15.00;99.90;;;;;;5034213;28;20460;-54
2022/06/06 01:02:35;;;;;;;;;;;15.00;99.90;;;;;;5033918;28;19951;-54
2022/06/06 01:05:01;;;;;;;;;;;14.90;99.90;;;;;;5033742;28;19936;-55
2022/06/06 01:07:26;;;;;;;;;;;14.90;99.90;;;;;;5033676;28;20000;-54
2022/06/06 01:09:52;;;;;;;;;;;14.90;99.90;;;;;;5033678;28;19948;-55
2022/06/06 01:12:19;;;;;;;;;;;14.80;99.90;;;;;;5033729;28;19905;-55
2022/06/06 01:14:47;;;;;;;;;;;14.70;99.90;;;;;;5033752;28;19992;-54
2022/06/06 01:17:25;;;;;;;;;;;14.60;99.90;;;;;;5033621;28;19937;-55
2022/06/06 01:20:09;;;;;;;;;;;14.50;99.90;;;;;;5034189;28;19909;-55
2022/06/06 01:22:53;;;;;;;;;;;14.40;99.90;;;;;;5033895;28;20163;-55
2022/06/06 01:25:24;;;;;;;;;;;14.40;99.90;;;;;;5033418;28;19916;-55
2022/06/06 01:27:53;;;;;;;;;;;14.30;99.90;;;;;;5033549;28;20439;-55
2022/06/06 01:30:20;;;;;;;;;;;14.30;99.90;;;;;;5033617;28;20417;-55
2022/06/06 01:32:49;;;;;;;;;;;14.30;99.90;;;;;;5033418;28;19905;-55
2022/06/06 01:35:23;;;;;;;;;;;14.30;99.90;;;;;;5033197;28;20290;-54
2022/06/06 01:37:48;;;;;;;;;;;14.20;99.90;;;;;;5032016;28;20301;-55
2022/06/06 01:40:15;;;;;;;;;;;14.20;99.90;;;;;;5033371;28;20127;-55
2022/06/06 01:42:41;;;;;;;;;;;14.20;99.90;;;;;;5033032;28;20327;-55
2022/06/06 01:45:06;;;;;;;;;;;14.20;99.90;;;;;;5032917;28;20273;-55
2022/06/06 01:47:34;;;;;;;;;;;14.10;99.90;;;;;;5033105;28;19951;-55
2022/06/06 01:50:00;;;;;;;;;;;14.10;99.90;;;;;;5033321;28;19905;-54
2022/06/06 01:52:25;;;;;;;;;;;14.00;99.90;;;;;;5032869;28;19962;-55
2022/06/06 01:54:55;;;;;;;;;;;13.90;99.90;;;;;;5032688;28;20366;-55
2022/06/06 01:57:22;;;;;;;;;;;13.80;99.90;;;;;;5032618;28;19955;-56
2022/06/06 01:59:47;;;;;;;;;;;13.80;99.90;;;;;;5032952;28;19905;-55
2022/06/06 02:02:13;;;;;;;;;;;13.70;99.90;;;;;;5032414;28;19909;-55
2022/06/06 02:04:39;;;;;;;;;;;13.70;99.90;;;;;;5032547;28;19909;-55
2022/06/06 02:07:04;;;;;;;;;;;13.60;99.90;;;;;;5032661;28;19905;-55
2022/06/06 02:09:32;;;;;;;;;;;13.50;99.90;;;;;;5032562;28;19905;-55
2022/06/06 02:11:58;;;;;;;;;;;13.40;99.90;;;;;;5032732;28;19912;-55
2022/06/06 02:14:24;;;;;;;;;;;13.40;99.90;;;;;;5032337;28;19916;-55
2022/06/06 02:16:50;;;;;;;;;;;13.40;99.90;;;;;;5032876;28;19905;-55
2022/06/06 02:19:15;;;;;;;;;;;13.40;99.90;;;;;;5031258;28;20278;-55
2022/06/06 02:21:41;;;;;;;;;;;13.40;99.90;;;;;;5033184;28;19912;-55
2022/06/06 02:24:06;;;;;;;;;;;13.40;99.90;;;;;;5032163;28;19905;-55
2022/06/06 02:26:32;;;;;;;;;;;13.30;99.90;;;;;;5032145;28;19905;-56
2022/06/06 02:28:58;;;;;;;;;;;13.20;99.90;;;;;;5032127;28;19905;-56
2022/06/06 02:31:23;;;;;;;;;;;13.20;99.90;;;;;;5031970;28;19932;-55
2022/06/06 02:33:49;;;;;;;;;;;13.10;99.90;;;;;;5031751;28;19913;-55
2022/06/06 02:36:14;;;;;;;;;;;13.10;99.90;;;;;;5032046;28;19927;-55
2022/06/06 02:38:40;;;;;;;;;;;13.10;99.90;;;;;;5033224;28;19935;-54
2022/06/06 02:41:08;;;;;;;;;;;13.10;99.90;;;;;;5032082;28;19905;-55
2022/06/06 02:43:43;;;;;;;;;;;13.00;99.90;;;;;;5032140;28;19909;-55
2022/06/06 02:46:09;;;;;;;;;;;13.00;99.90;;;;;;5031741;28;19912;-55
2022/06/06 02:48:35;;;;;;;;;;;12.90;99.90;;;;;;5030194;28;19905;-55
2022/06/06 02:51:02;;;;;;;;;;;12.90;99.90;;;;;;5032397;28;20007;-55
2022/06/06 02:53:28;;;;;;;;;;;12.80;99.90;;;;;;5031783;28;19905;-55
2022/06/06 02:55:53;;;;;;;;;;;12.80;99.90;;;;;;5031730;28;19905;-59
2022/06/06 02:58:20;;;;;;;;;;;12.80;99.90;;;;;;5031696;28;19990;-55
2022/06/06 03:00:46;;;;;;;;;;;12.70;99.90;;;;;;5032014;28;19905;-55
2022/06/06 03:03:12;;;;;;;;;;;12.70;99.90;;;;;;5031469;28;20054;-55
2022/06/06 03:05:40;;;;;;;;;;;12.60;99.90;;;;;;5031568;28;20003;-55
2022/06/06 03:08:06;;;;;;;;;;;12.60;99.90;;;;;;5031742;28;20436;-55
2022/06/06 03:10:58;;;;;;;;;;;12.60;99.90;;;;;;5031649;28;19955;-55
2022/06/06 03:13:39;;;;;;;;;;;12.60;99.90;;;;;;5030346;28;19948;-58
2022/06/06 03:22:05;;;;;;;;;;;12.50;99.90;;;;;;5031705;28;19912;-55
2022/06/06 03:24:37;;;;;;;;;;;12.50;99.90;;;;;;5030316;28;19909;-55
2022/06/06 03:27:15;;;;;;;;;;;12.50;99.90;;;;;;5032168;28;19905;-55
2022/06/06 03:29:43;;;;;;;;;;;12.50;99.90;;;;;;5031574;28;19905;-55
2022/06/06 03:32:18;;;;;;;;;;;12.50;99.90;;;;;;5031234;28;19975;-56
2022/06/06 03:34:54;;;;;;;;;;;12.50;99.90;;;;;;5031201;28;20349;-55
2022/06/06 03:37:39;;;;;;;;;;;12.50;99.90;;;;;;5031639;28;20389;-56
2022/06/06 03:40:04;;;;;;;;;;;12.50;99.90;;;;;;5031460;28;19912;-55
2022/06/06 03:42:34;;;;;;;;;;;12.50;99.90;;;;;;5031658;28;19928;-55
2022/06/06 03:45:06;;;;;;;;;;;12.60;99.90;;;;;;5031790;28;20381;-55
2022/06/06 03:47:40;;;;;;;;;;;12.50;99.90;;;;;;5031644;28;19909;-55
2022/06/06 03:50:18;;;;;;;;;;;12.50;99.90;;;;;;5031491;28;19905;-55
2022/06/06 03:52:55;;;;;;;;;;;12.40;99.90;;;;;;5031304;28;19905;-56
2022/06/06 03:55:30;;;;;;;;;;;12.30;99.90;;;;;;5031589;28;19995;-55
2022/06/06 03:57:56;;;;;;;;;;;12.40;99.90;;;;;;5031462;28;19905;-55
2022/06/06 04:00:22;;;;;;;;;;;12.40;99.90;;;;;;5034151;28;19988;-55
2022/06/06 04:02:48;;;;;;;;;;;12.40;99.90;;;;;;5035256;28;19905;-55
2022/06/06 04:05:18;;;;;;;;;;;12.40;99.90;;;;;;5033713;28;19913;-55
2022/06/06 04:07:44;;;;;;;;;;;12.40;99.90;;;;;;5034810;28;19909;-55
2022/06/06 04:10:10;;;;;;;;;;;12.50;99.90;;;;;;5035141;28;19912;-56
2022/06/06 04:12:41;;;;;;;;;;;12.50;99.90;;;;;;5034786;28;19905;-55
2022/06/06 04:15:26;;;;;;;;;;;12.50;99.90;;;;;;5034885;28;19909;-54
2022/06/06 04:17:51;;;;;;;;;;;12.50;99.90;;;;;;5034750;28;19909;-55
2022/06/06 04:20:35;;;;;;;;;;;12.40;99.90;;;;;;5034856;28;19909;-54
2022/06/06 04:23:23;;;;;;;;;;;12.40;99.90;;;;;;5050087;28;19909;-55
2022/06/06 04:26:05;;;;;;;;;;;12.40;99.90;;;;;;5033520;28;19963;-56
2022/06/06 04:28:34;;;;;;;;;;;12.50;99.90;;;;;;5034489;28;19913;-55
2022/06/06 04:31:09;;;;;;;;;;;12.60;99.90;;;;;;5034908;28;20259;-55
2022/06/06 04:33:40;;;;;;;;;;;12.80;99.90;;;;;;5034868;28;19952;-55
2022/06/06 04:36:25;;;;;;;;;;;12.90;99.90;;;;;;5033991;28;20349;-55
2022/06/06 04:39:05;;;;;;;;;;;12.90;99.90;;;;;;5034558;28;19984;-54
2022/06/06 04:41:37;;;;;;;;;;;12.90;99.90;;;;;;5034424;28;20290;-56
2022/06/06 04:44:05;;;;;;;;;;;13.00;99.90;;;;;;5034199;28;20262;-54
2022/06/06 04:46:36;;;;;;;;;;;13.00;99.90;;;;;;5034437;28;19909;-55
2022/06/06 04:49:02;;;;;;;;;;;13.00;99.90;;;;;;5034174;28;20317;-55
2022/06/06 04:51:28;;;;;;;;;;;13.10;99.90;;;;;;5034626;28;19932;-55
2022/06/06 04:53:55;;;;;;;;;;;13.10;99.90;;;;;;5034607;28;20385;-54
2022/06/06 04:56:21;;;;;;;;;;;13.10;99.90;;;;;;5033978;28;19956;-55
2022/06/06 04:58:48;;;;;;;;;;;13.00;99.90;;;;;;5034062;28;19909;-55
2022/06/06 05:01:14;;;;;;;;;;;13.00;99.90;;;;;;5033892;28;19905;-55
2022/06/06 05:03:39;;;;;;;;;;;13.00;99.90;;;;;;5033976;28;19912;-55
2022/06/06 05:06:08;;;;;;;;;;;13.00;99.90;;;;;;5033828;28;19912;-54
2022/06/06 05:08:33;;;;;;;;;;;13.10;99.90;;;;;;5033860;28;19928;-54
2022/06/06 05:11:04;;;;;;;;;;;13.20;99.90;;;;;;5033859;28;19909;-54
2022/06/06 05:13:48;;;;;;;;;;;13.30;99.90;;;;;;5033884;28;20000;-54
2022/06/06 05:16:31;;;;;;;;;;;13.30;99.90;;;;;;5033943;28;19913;-55
2022/06/06 05:19:00;;;;;;;;;;;13.40;99.90;;;;;;5032070;28;19905;-55
2022/06/06 05:21:31;;;;;;;;;;;13.40;99.90;;;;;;5033848;28;19905;-55
2022/06/06 05:23:59;;;;;;;;;;;13.30;99.90;;;;;;5033539;28;19909;-55
2022/06/06 05:26:34;;;;;;;;;;;13.40;99.90;;;;;;5032228;28;19909;-55
2022/06/06 05:29:05;;;;;;;;;;;13.40;99.90;;;;;;5033275;28;19905;-55
2022/06/06 05:31:49;;;;;;;;;;;13.50;99.90;;;;;;5034050;28;20285;-55
2022/06/06 05:34:15;;;;;;;;;;;13.60;99.90;;;;;;5033177;28;19951;-55
2022/06/06 05:36:53;;;;;;;;;;;13.60;99.90;;;;;;5033380;28;19921;-55
2022/06/06 05:39:18;;;;;;;;;;;13.50;99.90;;;;;;5033096;28;19905;-56
2022/06/06 05:41:46;;;;;;;;;;;13.50;99.90;;;;;;5033152;28;19980;-56
2022/06/06 05:44:20;;;;;;;;;;;13.50;99.90;;;;;;5031899;28;19905;-55
2022/06/06 05:47:04;;;;;;;;;;;13.50;99.90;;;;;;5033044;28;20487;-55
2022/06/06 05:49:38;;;;;;;;;;;13.60;99.90;;;;;;5032847;28;19983;-55
2022/06/06 05:52:06;;;;;;;;;;;13.70;99.90;;;;;;5033340;28;20412;-55
2022/06/06 05:54:47;;;;;;;;;;;13.70;99.90;;;;;;5033028;28;19905;-55
2022/06/06 05:57:12;;;;;;;;;;;13.80;99.90;;;;;;5033014;28;19909;-55
2022/06/06 06:00:00;;;;;;;;;;;13.90;99.90;;;;;;5033322;28;20039;-54
2022/06/06 06:02:38;;;;;;;;;;;13.90;99.90;;;;;;5033052;28;19952;-55
2022/06/06 06:05:10;;;;;;;;;;;14.00;99.90;;;;;;5032837;28;19909;-54
2022/06/06 06:07:47;;;;;;;;;;;14.00;99.90;;;;;;5032718;28;20373;-54
2022/06/06 06:10:21;;;;;;;;;;;14.20;99.90;;;;;;5032619;28;19905;-54
2022/06/06 06:13:02;;;;;;;;;;;14.40;99.90;;;;;;5033183;28;19908;-54
2022/06/06 06:15:36;;;;;;;;;;;14.50;99.90;;;;;;5032692;28;19906;-55
2022/06/06 06:18:03;;;;;;;;;;;14.50;99.90;;;;;;5032820;28;19948;-54
2022/06/06 06:20:30;;;;;;;;;;;14.60;99.90;;;;;;5033170;28;20354;-55
2022/06/06 06:23:00;;;;;;;;;;;14.60;99.90;;;;;;5031562;28;19908;-55
2022/06/06 06:25:26;;;;;;;;;;;14.50;99.90;;;;;;5031825;28;19913;-55
2022/06/06 06:28:01;;;;;;;;;;;14.50;99.90;;;;;;5031812;28;20000;-54
2022/06/06 06:30:29;;;;;;;;;;;14.60;99.90;;;;;;5030724;28;20403;-55
2022/06/06 06:32:55;;;;;;;;;;;14.70;99.90;;;;;;5031549;28;19915;-52
2022/06/06 06:35:31;;;;;;;;;;;14.90;99.90;;;;;;5032256;28;20003;-52
2022/06/06 06:38:16;;;;;;;;;;;14.80;99.90;;;;;;5030600;28;19921;-54
2022/06/06 06:41:02;;;;;;;;;;;14.70;99.90;;;;;;5031546;28;19905;-54
2022/06/06 06:43:42;;;;;;;;;;;14.80;99.90;;;;;;5031419;28;19954;-54
2022/06/06 06:46:18;;;;;;;;;;;15.10;99.90;;;;;;5031264;28;20301;-52
2022/06/06 06:48:45;;;;;;;;;;;15.60;99.90;;;;;;5031528;28;19905;-52
2022/06/06 06:51:11;;;;;;;;;;;15.60;99.90;;;;;;5031767;28;20269;-52
2022/06/06 06:53:55;;;;;;;;;;;15.40;99.90;;;;;;5030344;28;19905;-51
2022/06/06 06:56:33;;;;;;;;;;;16.00;99.90;;;;;;5030249;28;19915;-54
2022/06/06 06:59:23;;;;;;;;;;;16.40;99.90;;;;;;5029298;28;19908;-52
2022/06/06 07:10:37;;;;;;;;;;;16.60;99.90;;;;;;5032097;28;20325;-52
2022/06/06 07:13:07;;;;;;;;;;;16.70;99.90;;;;;;5031896;28;19935;-52
2022/06/06 07:15:40;;;;;;;;;;;16.20;99.90;;;;;;5030772;28;20449;-53
2022/06/06 07:18:08;;;;;;;;;;;16.10;99.90;;;;;;5031352;28;19927;-53
2022/06/06 07:20:35;;;;;;;;;;;16.30;99.90;;;;;;5031186;28;19944;-53
2022/06/06 07:23:06;;;;;;;;;;;17.00;99.90;;;;;;5031268;28;19905;-53
2022/06/06 07:25:32;;;;;;;;;;;17.50;99.90;;;;;;5031134;28;20367;-53
2022/06/06 07:27:58;;;;;;;;;;;17.40;99.90;;;;;;5031050;28;19905;-53
2022/06/06 07:30:28;;;;;;;;;;;17.80;99.90;;;;;;5031114;28;20321;-53
2022/06/06 07:33:18;;;;;;;;;;;17.70;99.90;;;;;;5031698;28;20385;-53
2022/06/06 07:35:51;;;;;;;;;;;18.10;99.90;;;;;;5035074;28;19909;-52
2022/06/06 07:38:24;;;;;;;;;;;18.10;99.90;;;;;;5034990;28;19905;-53
2022/06/06 07:41:02;;;;;;;;;;;18.80;99.90;;;;;;5035159;28;19909;-53
2022/06/06 07:43:46;;;;;;;;;;;18.50;99.90;;;;;;5035131;28;19912;-52
2022/06/06 07:46:30;;;;;;;;;;;18.70;99.90;;;;;;5034848;28;19909;-52
2022/06/06 07:48:56;;;;;;;;;;;17.90;99.90;;;;;;5034621;28;20250;-53
2022/06/06 07:51:21;;;;;;;;;;;17.50;99.90;;;;;;5035013;28;19951;-53
2022/06/06 07:53:47;;;;;;;;;;;17.50;99.90;;;;;;5035276;28;20062;-53
2022/06/06 07:56:18;;;;;;;;;;;17.60;99.90;;;;;;5034385;28;20373;-53
2022/06/06 07:58:49;;;;;;;;;;;17.70;99.90;;;;;;5034904;28;19996;-53
2022/06/06 08:01:26;;;;;;;;;;;17.90;99.90;;;;;;5034785;28;19909;-53
2022/06/06 08:03:59;;;;;;;;;;;18.60;99.90;;;;;;5034428;28;19944;-53
2022/06/06 08:06:31;;;;;;;;;;;19.10;99.90;;;;;;5034431;28;19909;-53
2022/06/06 08:09:23;;;;;;;;;;;19.20;99.90;;;;;;5035388;28;19959;-53
2022/06/06 08:12:08;;;;;;;;;;;18.70;99.90;;;;;;5034538;28;19909;-53
2022/06/06 08:14:39;;;;;;;;;;;18.20;99.90;;;;;;5034442;28;19905;-53
2022/06/06 08:17:04;;;;;;;;;;;17.70;99.90;;;;;;5034713;28;20558;-51
2022/06/06 08:19:49;;;;;;;;;;;18.60;99.90;;;;;;5034729;28;20011;-51
2022/06/06 08:22:15;;;;;;;;;;;18.60;99.90;;;;;;5034469;28;19915;-53
2022/06/06 08:24:41;;;;;;;;;;;17.50;99.90;;;;;;5034203;28;20366;-53
2022/06/06 08:27:11;;;;;;;;;;;17.30;99.90;;;;;;5034252;28;19916;-53
2022/06/06 08:29:38;;;;;;;;;;;17.10;99.90;;;;;;5034159;28;19927;-53
2022/06/06 08:32:05;;;;;;;;;;;17.50;99.90;;;;;;5034281;28;19905;-53
2022/06/06 08:34:31;;;;;;;;;;;17.60;99.90;;;;;;5033804;28;20274;-53
2022/06/06 08:37:06;;;;;;;;;;;17.60;99.90;;;;;;5034444;28;19924;-52
2022/06/06 08:39:31;;;;;;;;;;;18.60;99.90;;;;;;5034213;28;19912;-51
2022/06/06 08:41:57;;;;;;;;;;;19.50;99.90;;;;;;5033837;28;19968;-51
2022/06/06 08:44:22;;;;;;;;;;;19.90;99.90;;;;;;5033221;28;19928;-53
2022/06/06 08:46:51;;;;;;;;;;;19.20;99.90;;;;;;5034045;28;20358;-53
2022/06/06 08:52:06;;;;;;;;;;;18.60;99.90;;;;;;5034461;28;19951;-52
2022/06/06 08:54:42;;;;;;;;;;;18.30;99.90;;;;;;5034211;28;20308;-52
2022/06/06 08:57:19;;;;;;;;;;;17.70;99.90;;;;;;5033749;28;19939;-53
2022/06/06 08:59:48;;;;;;;;;;;17.70;99.90;;;;;;5032470;28;19905;-53
2022/06/06 09:02:16;;;;;;;;;;;18.40;99.90;;;;;;5033445;28;19905;-52
2022/06/06 09:05:00;;;;;;;;;;;19.40;99.90;;;;;;5033982;28;20011;-53
2022/06/06 09:07:52;;;;;;;;;;;19.40;99.90;;;;;;5033394;28;19994;-53
2022/06/06 09:10:46;;;;;;;;;;;18.40;99.90;;;;;;5032457;28;19927;-52
2022/06/06 09:13:26;;;;;;;;;;;17.50;99.90;;;;;;5032869;28;20004;-52
2022/06/06 09:16:10;;;;;;;;;;;17.40;99.90;;;;;;5033262;28;19913;-52
2022/06/06 09:18:39;;;;;;;;;;;17.30;99.90;;;;;;5033031;28;19905;-52
2022/06/06 09:21:04;;;;;;;;;;;17.30;99.90;;;;;;5033591;28;19916;-52
2022/06/06 09:23:41;;;;;;;;;;;17.10;99.90;;;;;;5033058;28;19905;-52
2022/06/06 09:26:19;;;;;;;;;;;17.70;99.90;;;;;;5033420;28;19916;-52
2022/06/06 09:28:56;;;;;;;;;;;19.00;99.90;;;;;;5032983;28;19935;-52
2022/06/06 09:31:25;;;;;;;;;;;19.80;99.90;;;;;;5033411;28;19909;-52
2022/06/06 09:34:08;;;;;;;;;;;19.90;99.90;;;;;;5032908;28;19913;-52
2022/06/06 09:36:46;;;;;;;;;;;20.30;99.90;;;;;;5032561;28;19917;-53
2022/06/06 09:39:14;;;;;;;;;;;19.30;99.90;;;;;;5033413;28;20358;-53
2022/06/06 09:41:49;;;;;;;;;;;18.60;99.90;;;;;;5032931;28;19905;-52
2022/06/06 09:44:15;;;;;;;;;;;19.20;99.90;;;;;;5032669;28;19951;-52
2022/06/06 09:46:59;;;;;;;;;;;19.90;99.90;;;;;;5032734;28;19971;-52
2022/06/06 09:49:37;;;;;;;;;;;20.30;99.90;;;;;;5048468;28;19958;-53
2022/06/06 09:52:35;;;;;;;;;;;20.10;99.90;;;;;;5032684;28;19909;-53
2022/06/06 10:01:19;;;;;;;;;;;20.70;99.90;;;;;;5032354;28;19912;-53
2022/06/06 10:04:03;;;;;;;;;;;19.20;99.90;;;;;;5032208;28;19992;-53
2022/06/06 10:06:45;;;;;;;;;;;19.40;99.90;;;;;;5032083;28;20055;-53
2022/06/06 10:09:29;;;;;;;;;;;20.00;99.90;;;;;;5032337;28;19905;-53
2022/06/06 10:12:13;;;;;;;;;;;20.90;99.90;;;;;;5032584;28;20316;-53
2022/06/06 10:14:54;;;;;;;;;;;21.10;99.90;;;;;;5032965;28;19971;-53
2022/06/06 10:17:55;;;;;;;;;;;20.40;99.90;;;;;;5032425;28;19909;-53
2022/06/06 10:20:26;;;;;;;;;;;20.60;99.90;;;;;;5030168;28;19959;-52
2022/06/06 10:22:52;;;;;;;;;;;20.70;99.90;;;;;;5032088;28;19905;-52
2022/06/06 10:25:40;;;;;;;;;;;20.00;99.90;;;;;;5031613;28;19909;-52
2022/06/06 10:28:14;;;;;;;;;;;20.30;99.90;;;;;;5031598;28;19905;-52
2022/06/06 10:30:46;;;;;;;;;;;20.10;99.90;;;;;;5032477;28;19935;-52
2022/06/06 10:33:14;;;;;;;;;;;19.60;99.90;;;;;;5031915;28;19909;-52
2022/06/06 10:35:47;;;;;;;;;;;19.80;99.90;;;;;;5031250;28;19909;-52
2022/06/06 10:38:12;;;;;;;;;;;19.60;99.90;;;;;;5031719;28;19936;-52
2022/06/06 10:41:04;;;;;;;;;;;19.20;99.90;;;;;;5031517;28;19964;-52
2022/06/06 10:43:33;;;;;;;;;;;18.70;99.90;;;;;;5031095;28;19905;-52
2022/06/06 10:46:08;;;;;;;;;;;18.60;99.90;;;;;;5031388;28;19913;-52
2022/06/06 10:48:33;;;;;;;;;;;18.20;99.90;;;;;;5031625;28;20362;-52
2022/06/06 10:54:01;;;;;;;;;;;18.10;99.90;;;;;;5031569;28;19913;-52
2022/06/06 10:56:46;;;;;;;;;;;18.00;99.90;;;;;;5031225;28;19909;-52
2022/06/06 10:59:17;;;;;;;;;;;17.90;99.90;;;;;;5031611;28;19912;-52
2022/06/06 11:01:53;;;;;;;;;;;18.20;99.90;;;;;;5031681;28;19912;-52
2022/06/06 11:04:37;;;;;;;;;;;18.40;99.90;;;;;;5031203;28;19940;-52
2022/06/06 11:07:14;;;;;;;;;;;18.50;99.90;;;;;;5031448;28;19905;-52
2022/06/06 11:09:40;;;;;;;;;;;18.40;99.90;;;;;;5031851;28;19909;-52
2022/06/06 11:12:11;;;;;;;;;;;18.30;99.90;;;;;;5031460;28;20435;-53
2022/06/06 11:14:38;;;;;;;;;;;18.20;99.90;;;;;;5031646;28;20010;-53
2022/06/06 11:17:22;;;;;;;;;;;18.00;99.90;;;;;;5031137;28;19943;-53
2022/06/06 11:20:02;;;;;;;;;;;17.90;99.90;;;;;;5031302;28;19908;-52
2022/06/06 11:22:32;;;;;;;;;;;18.00;99.90;;;;;;5031209;28;19947;-52
2022/06/06 11:25:07;;;;;;;;;;;18.00;99.90;;;;;;5031108;28;19909;-52
2022/06/06 11:27:35;;;;;;;;;;;17.90;99.90;;;;;;5031295;28;20312;-53
2022/06/06 11:30:04;;;;;;;;;;;17.80;99.90;;;;;;5032216;28;19905;-54
2022/06/06 11:32:48;;;;;;;;;;;17.90;99.90;;;;;;5031539;28;19906;-53
2022/06/06 11:35:26;;;;;;;;;;;17.90;99.90;;;;;;5031835;28;19959;-54
2022/06/06 11:38:12;;;;;;;;;;;18.00;99.90;;;;;;5031669;28;19923;-53
2022/06/06 11:40:56;;;;;;;;;;;18.10;99.90;;;;;;5032029;28;20003;-54
2022/06/06 11:43:24;;;;;;;;;;;17.90;99.90;;;;;;5031350;28;19908;-54
2022/06/06 11:46:05;;;;;;;;;;;17.70;99.90;;;;;;5031534;28;20637;-54
2022/06/06 11:49:01;;;;;;;;;;;17.70;99.90;;;;;;5031733;28;20259;-54
2022/06/06 11:51:53;;;;;;;;;;;17.70;99.90;;;;;;5031814;28;19916;-54
2022/06/06 11:54:19;;;;;;;;;;;17.90;99.90;;;;;;5030875;28;19909;-54
2022/06/06 11:57:03;;;;;;;;;;;18.10;99.90;;;;;;5031022;28;19931;-55
2022/06/06 11:59:34;;;;;;;;;;;18.10;99.90;;;;;;5031382;28;19905;-54
2022/06/06 12:02:19;;;;;;;;;;;17.90;99.90;;;;;;5031232;28;20109;-54
2022/06/06 12:05:22;;;;;;;;;;;17.90;99.90;;;;;;5031194;28;19909;-53
2022/06/06 12:08:10;;;;;;;;;;;17.90;99.90;;;;;;5028665;28;19936;-53
2022/06/06 12:10:39;;;;;;;;;;;17.90;99.90;;;;;;5028876;28;19912;-54
2022/06/06 12:13:13;;;;;;;;;;;18.10;99.90;;;;;;5030429;28;19909;-53
2022/06/06 12:15:56;;;;;;;;;;;18.20;99.90;;;;;;5031153;28;19940;-57
2022/06/06 12:18:24;;;;;;;;;;;18.10;99.90;;;;;;5031095;28;19911;-53
2022/06/06 12:21:08;;;;;;;;;;;18.20;99.90;;;;;;5033490;28;19905;-53
2022/06/06 12:23:41;;;;;;;;;;;18.30;99.90;;;;;;5034791;28;19905;-53
2022/06/06 12:26:27;;;;;;;;;;;18.50;99.90;;;;;;5034895;28;20346;-54
2022/06/06 12:28:56;;;;;;;;;;;18.80;99.90;;;;;;5034719;28;20354;-53
2022/06/06 12:31:40;;;;;;;;;;;19.30;99.90;;;;;;5034429;28;19905;-53
2022/06/06 12:34:24;;;;;;;;;;;19.70;99.90;;;;;;5034706;28;19909;-53
2022/06/06 12:36:56;;;;;;;;;;;19.80;99.90;;;;;;5034228;28;20372;-52
2022/06/06 12:39:33;;;;;;;;;;;19.60;99.90;;;;;;5034457;28;20472;-53
2022/06/06 12:42:17;;;;;;;;;;;19.60;99.90;;;;;;5034724;28;19905;-53
2022/06/06 12:44:48;;;;;;;;;;;19.30;99.90;;;;;;5034691;28;20350;-53
2022/06/06 12:47:35;;;;;;;;;;;19.30;99.90;;;;;;5034880;28;19932;-55
2022/06/06 12:50:03;;;;;;;;;;;19.50;99.90;;;;;;5034857;28;19908;-53
2022/06/06 12:52:31;;;;;;;;;;;19.30;99.90;;;;;;5034324;28;19908;-53
2022/06/06 12:57:41;;;;;;;;;;;19.30;99.90;;;;;;5034459;28;19909;-53
2022/06/06 13:00:09;;;;;;;;;;;18.90;99.90;;;;;;5034345;28;19912;-53
2022/06/06 13:02:37;;;;;;;;;;;18.60;99.90;;;;;;5033851;28;19905;-54
2022/06/06 13:05:09;;;;;;;;;;;18.80;99.90;;;;;;5034142;28;19909;-54
2022/06/06 13:08:00;;;;;;;;;;;18.90;99.90;;;;;;5034223;28;19909;-54
2022/06/06 13:10:27;;;;;;;;;;;19.10;99.90;;;;;;5034713;28;19909;-54
2022/06/06 13:13:02;;;;;;;;;;;19.10;99.90;;;;;;5034024;28;20333;-53
2022/06/06 13:15:34;;;;;;;;;;;19.00;99.90;;;;;;5033839;28;19963;-53
2022/06/06 13:18:08;;;;;;;;;;;19.20;99.90;;;;;;5033690;28;20194;-53
2022/06/06 13:20:51;;;;;;;;;;;19.30;99.90;;;;;;5034189;28;19909;-54
2022/06/06 13:23:16;;;;;;;;;;;19.20;99.90;;;;;;5033910;28;19930;-54
2022/06/06 13:25:48;;;;;;;;;;;19.70;99.90;;;;;;5032610;28;19909;-54
2022/06/06 13:28:19;;;;;;;;;;;19.60;99.90;;;;;;5033959;28;20014;-53
2022/06/06 13:30:44;;;;;;;;;;;19.00;99.90;;;;;;5032754;28;19909;-53
2022/06/06 13:33:43;;;;;;;;;;;19.20;99.90;;;;;;5033207;28;19970;-53
2022/06/06 13:36:32;;;;;;;;;;;19.10;99.90;;;;;;5033255;28;19963;-53
2022/06/06 13:39:00;;;;;;;;;;;19.00;99.90;;;;;;5031714;28;19909;-53
2022/06/06 13:41:36;;;;;;;;;;;19.10;99.90;;;;;;5032708;28;19905;-53
2022/06/06 13:44:37;;;;;;;;;;;18.90;99.90;;;;;;5032757;28;20382;-53
2022/06/06 13:47:15;;;;;;;;;;;19.10;99.90;;;;;;5030140;28;19949;-53
2022/06/06 13:49:49;;;;;;;;;;;19.20;99.90;;;;;;5033048;28;19939;-53
2022/06/06 13:52:43;;;;;;;;;;;19.10;99.90;;;;;;5032519;28;20022;-53
2022/06/06 13:55:26;;;;;;;;;;;19.20;99.90;;;;;;5033000;28;19928;-53
2022/06/06 13:58:10;;;;;;;;;;;19.20;99.90;;;;;;5032443;28;19913;-53
2022/06/06 14:01:01;;;;;;;;;;;19.20;99.90;;;;;;5032543;28;20044;-53
2022/06/06 14:03:41;;;;;;;;;;;19.30;99.90;;;;;;5030477;28;19912;-53
2022/06/06 14:06:45;;;;;;;;;;;19.20;99.90;;;;;;5030873;28;19913;-53
2022/06/06 14:09:15;;;;;;;;;;;19.10;99.90;;;;;;5029911;28;19905;-53
2022/06/06 14:11:46;;;;;;;;;;;19.00;99.90;;;;;;5030026;28;19905;-53
2022/06/06 14:14:14;;;;;;;;;;;19.40;99.90;;;;;;5030910;28;19909;-53
2022/06/06 14:16:44;;;;;;;;;;;19.40;99.90;;;;;;5031940;28;19950;-53
2022/06/06 14:19:10;;;;;;;;;;;19.50;99.90;;;;;;5032031;28;20385;-53
2022/06/06 14:21:38;;;;;;;;;;;19.70;99.90;;;;;;5032237;28;19906;-53
2022/06/06 14:24:08;;;;;;;;;;;19.50;99.90;;;;;;5032484;28;20038;-53
2022/06/06 14:26:34;;;;;;;;;;;19.20;99.90;;;;;;5031863;28;19916;-53
2022/06/06 14:29:05;;;;;;;;;;;19.40;99.90;;;;;;5030650;28;19909;-53
2022/06/06 14:31:48;;;;;;;;;;;19.60;99.90;;;;;;5031012;28;20247;-53
2022/06/06 14:34:20;;;;;;;;;;;19.60;99.90;;;;;;5031886;28;19911;-53
2022/06/06 14:36:47;;;;;;;;;;;19.30;99.90;;;;;;5031894;28;19999;-53
2022/06/06 14:39:23;;;;;;;;;;;19.40;99.90;;;;;;5031493;28;19909;-53
2022/06/06 14:41:49;;;;;;;;;;;19.20;99.90;;;;;;5032135;28;20441;-53
2022/06/06 14:44:26;;;;;;;;;;;19.40;99.90;;;;;;5031013;28;19916;-53
2022/06/06 14:46:53;;;;;;;;;;;19.50;99.90;;;;;;5030505;28;19917;-53
2022/06/06 14:49:22;;;;;;;;;;;19.80;99.90;;;;;;5031843;28;20358;-53
2022/06/06 14:51:48;;;;;;;;;;;19.70;99.90;;;;;;5031483;28;20164;-53
2022/06/06 14:54:14;;;;;;;;;;;19.90;99.90;;;;;;5031865;28;19912;-53
2022/06/06 14:56:44;;;;;;;;;;;20.00;99.90;;;;;;5031092;28;19908;-53
2022/06/06 14:59:14;;;;;;;;;;;20.20;99.90;;;;;;5031018;28;19905;-53
2022/06/06 15:01:40;;;;;;;;;;;20.40;99.90;;;;;;5031659;28;19959;-53
2022/06/06 15:04:24;;;;;;;;;;;20.30;99.90;;;;;;5031461;28;19912;-53
2022/06/06 15:06:55;;;;;;;;;;;20.40;99.90;;;;;;5031402;28;19916;-53
2022/06/06 15:09:26;;;;;;;;;;;20.00;99.90;;;;;;5030922;28;19905;-53
2022/06/06 15:11:52;;;;;;;;;;;19.90;99.90;;;;;;5031385;28;19909;-53
2022/06/06 15:14:23;;;;;;;;;;;20.00;99.90;;;;;;5031040;28;19911;-53
2022/06/06 15:16:49;;;;;;;;;;;20.00;99.90;;;;;;5031189;28;19909;-53
2022/06/06 15:19:39;;;;;;;;;;;20.10;99.90;;;;;;5031192;28;19931;-53
2022/06/06 15:22:05;;;;;;;;;;;19.90;99.90;;;;;;5031431;28;19909;-53